X  CloseMetar Aviation Weather Data     YMAV Avalon Airport

Temperature

13°C Temperature

10°C Dewpoint

82% Humidity



Wind

21 KM/H

13 MPH

 6 M/S

11 KTS



300°
West North
West
Current Conditions

Mostly Cloudy Mostly Cloudy
Pressure 1017.92 (hPa) - 30.06 (in)
Visibility 6.2 (mi) - 10 (km)
Airport
Airport-code YMAV

Location Avalon Airport 14 (km)

Metar:
YMAV 222300Z AUTO 30011KT 9999 // BKN047 OVC053 13/10 Q1018

Time: 23-04-2021 09:00